Aeroporto :
LOGIN :

Iscrizione | Disclaimer

   EN    FR    IT 

 










Sommario :    VFR   VFR Marginale   IFR   IFR Intensivo   IFR Molto Intensivo
Visibilità : 
Base nubi : 
>= 8 km
>= 3000ft
5 / 8 km
1000 / 3000 ft
1500m / 5 km
500 / 1000 ft
800 / 1500m
200 / 500 ft
< 800m
< 200 ft
Simboli :   Temporali  Nebbia  Neve Forte  Precipitazioni Forti  Vento > 20 kt
SIGMETs :   Varie  Temporali  Ghiacco  Turbolenza  Onda orograficha  Ceneri Vulcaniche






- Altitudine del aeroporto : 1363 ft


ETIC - Grafenwohr Army Air Field

ULTIMO METAR :
  • 202256Z AUTO 25006KT 9999 SCT090 SCT130 17/15 A3000 RMK AO2 SLP145 T01720154 $

METARs OBSOLETI :
  • 202156Z AUTO 25007KT 9999 FEW048 18/15 A2999 RMK AO2 RAB12E50DZB50E52 SLP141 P0000 T01770153 402950125 $
  • 202152Z AUTO 26007KT 9999 FEW055 18/15 A2998 RMK AO2 RAB12E50DZB50E52 SLP138 $
  • 202112Z AUTO 24009KT 9999 -RA FEW110 SCT140 16/15 A2999 RMK AO2 LTG DSNT SW RAB12 PRESRR SLP145 $
  • 202056Z AUTO 00000KT 9999 CLR 16/15 A2997 RMK AO2 RAB1957E1958DZB1958E11 SLP138 P0000 60000 T01560146 55007 $
  • 202011Z AUTO 00000KT 9999 FEW070 SCT100 BKN160 16/15 A2997 RMK AO2 RAB1957E1958DZB1958E11 SLP140 $

TAF AMD TAF ETIC
Valido dal 20 a 20 ore il 22 a 00 ore UTC


202000Z 2020/2124 21009KT 9000 -DZ VCTS SCT010CB QNH2998INS
TEMPO 2020/2024 24015G25KT 3200 -TSRA BKN030CB
BECMG 2100/2101 20010G18KT 9000 -DZ SCT030 QNH3006INS
BECMG 2104/2105 27010G15KT 9999 NSW SCT030 QNH3014INS
BECMG 2110/2111 29009KT 9999 FEW050 QNH3011INS TX18/2113Z TN08/2104Z LAST NO AMDS AFT 2020 NEXT 2302



MetMap, La meteo Aeronautica in un colpo d'occhio ! - Copyright ORBIFLY Dicembre 2007 - Disclaimer

ORBIFLY MET'MAP TEAM :

Programmazione e sviluppo : Alexandra Zaïnal
Concezione : Baudouin d'Aumeries
Supporto tecnico e logistico : Manuel Goepfert
Aiuto : Marc-Olivier Méhu
Aiuto per la traduzione : Arnaldo La Scala

Contatto : metmap@orbifly.com




FONTI E CREDITI :

   NOAA